createdAt,value
2023-03-18T04:02:45.286Z,9.70
2023-03-18T04:05:17.304Z,9.70
2023-03-18T04:07:47.927Z,9.70
2023-03-18T04:10:18.494Z,9.70
2023-03-18T04:12:47.300Z,9.70
2023-03-18T04:15:17.202Z,9.70
2023-03-18T04:17:48.574Z,9.70
2023-03-18T04:20:19.369Z,9.60
2023-03-18T04:22:48.172Z,9.60
2023-03-18T04:25:18.777Z,9.60
2023-03-18T04:27:47.735Z,9.50
2023-03-18T04:30:20.346Z,9.50
2023-03-18T04:32:59.658Z,9.50
2023-03-18T04:35:28.314Z,9.50
2023-03-18T04:37:57.025Z,9.50
2023-03-18T04:40:29.345Z,9.50
2023-03-18T04:42:58.062Z,9.50
2023-03-18T04:45:29.413Z,9.40
2023-03-18T04:48:02.026Z,9.30
2023-03-18T04:50:34.358Z,9.10
2023-03-18T04:53:03.430Z,9.00
2023-03-18T04:55:33.910Z,9.00
2023-03-18T04:58:04.620Z,9.00
2023-03-18T05:00:38.057Z,9.00
2023-03-18T05:03:19.964Z,9.00
2023-03-18T05:05:49.122Z,9.00
2023-03-18T05:08:20.587Z,9.10
2023-03-18T05:10:50.974Z,9.10
2023-03-18T05:13:19.773Z,9.00
2023-03-18T05:15:48.553Z,9.00
2023-03-18T05:18:17.295Z,9.10
2023-03-18T05:20:49.856Z,9.10
2023-03-18T05:23:19.386Z,9.20
2023-03-18T05:25:52.382Z,9.20
2023-03-18T05:28:22.691Z,9.20
2023-03-18T05:31:06.479Z,9.20
2023-03-18T05:33:38.121Z,9.20
2023-03-18T05:36:09.247Z,9.00
2023-03-18T05:38:44.265Z,9.10
2023-03-18T05:41:12.692Z,9.00
2023-03-18T05:43:42.846Z,9.00
2023-03-18T05:46:11.613Z,9.00
2023-03-18T05:48:52.692Z,9.00
2023-03-18T05:51:23.510Z,9.00
2023-03-18T05:53:51.449Z,9.00
2023-03-18T05:56:24.570Z,9.00
2023-03-18T05:58:55.361Z,9.00
2023-03-18T06:01:33.351Z,9.00
2023-03-18T06:04:02.945Z,8.90
2023-03-18T06:06:33.785Z,8.90
2023-03-18T06:09:01.857Z,8.90
2023-03-18T06:11:30.351Z,8.90
2023-03-18T06:13:58.196Z,8.90
2023-03-18T06:16:26.769Z,8.80
2023-03-18T06:18:58.308Z,8.70
2023-03-18T06:21:27.084Z,8.80
2023-03-18T06:23:56.547Z,8.80
2023-03-18T06:26:24.573Z,8.80
2023-03-18T06:28:52.563Z,8.80
2023-03-18T06:31:21.834Z,8.90
2023-03-18T06:33:50.079Z,8.90
2023-03-18T06:36:19.284Z,8.90
2023-03-18T06:38:50.786Z,8.90
2023-03-18T06:41:20.792Z,8.80
2023-03-18T06:44:07.481Z,8.60
2023-03-18T06:46:36.054Z,8.50
2023-03-18T06:49:05.214Z,8.50
2023-03-18T06:51:37.564Z,8.60
2023-03-18T06:54:05.907Z,8.60
2023-03-18T06:56:38.702Z,8.70
2023-03-18T06:59:14.578Z,8.70
2023-03-18T07:01:43.569Z,8.80
2023-03-18T07:04:12.124Z,8.80
2023-03-18T07:06:40.742Z,8.80
2023-03-18T07:09:11.066Z,8.90
2023-03-18T07:11:40.634Z,9.00
2023-03-18T07:14:14.466Z,9.00
2023-03-18T07:16:43.294Z,9.00
2023-03-18T07:19:11.524Z,9.00
2023-03-18T07:21:40.626Z,9.00
2023-03-18T07:24:08.783Z,9.00
2023-03-18T07:26:37.449Z,9.10
2023-03-18T07:29:06.897Z,9.10
2023-03-18T07:31:34.957Z,9.20
2023-03-18T07:34:02.845Z,9.20
2023-03-18T07:36:32.145Z,9.30
2023-03-18T07:39:00.088Z,9.40
2023-03-18T07:41:27.974Z,9.50
2023-03-18T07:43:56.120Z,9.50
2023-03-18T07:46:25.853Z,9.60
2023-03-18T07:48:54.235Z,9.70
2023-03-18T07:51:22.610Z,9.70
2023-03-18T07:53:51.609Z,9.70
2023-03-18T07:56:20.421Z,9.80
2023-03-18T07:58:48.290Z,9.80
2023-03-18T08:01:18.390Z,9.90
2023-03-18T08:03:47.852Z,9.90
2023-03-18T08:06:18.108Z,10.00
2023-03-18T08:08:47.414Z,10.10
2023-03-18T08:11:15.288Z,10.20
2023-03-18T08:13:43.540Z,10.30
2023-03-18T08:16:12.204Z,10.40
2023-03-18T08:18:40.272Z,10.50
2023-03-18T08:21:09.507Z,10.60
2023-03-18T08:23:37.412Z,10.70
2023-03-18T08:26:06.038Z,10.70
2023-03-18T08:28:33.894Z,10.80
2023-03-18T08:31:01.740Z,10.90
2023-03-18T08:33:29.677Z,10.90
2023-03-18T08:35:58.138Z,11.00
2023-03-18T08:38:27.474Z,11.10
2023-03-18T08:40:56.807Z,11.20
2023-03-18T08:43:25.658Z,11.30
2023-03-18T08:45:54.719Z,11.40
2023-03-18T08:48:24.025Z,11.50
2023-03-18T08:50:52.531Z,11.60
2023-03-18T08:53:20.638Z,11.70
2023-03-18T08:55:50.092Z,11.70
2023-03-18T08:58:18.760Z,11.80
2023-03-18T09:00:47.029Z,11.90
2023-03-18T09:03:15.819Z,11.90
2023-03-18T09:05:44.039Z,12.00
2023-03-18T09:08:11.900Z,12.10
2023-03-18T09:10:41.397Z,12.20
2023-03-18T09:13:10.954Z,12.20
2023-03-18T09:15:38.913Z,12.30
2023-03-18T09:18:12.161Z,12.30
2023-03-18T09:20:40.783Z,12.30
2023-03-18T09:23:08.946Z,12.40
2023-03-18T09:25:37.181Z,12.50
2023-03-18T09:28:05.542Z,12.60
2023-03-18T09:30:34.829Z,12.80
2023-03-18T09:33:02.901Z,13.00
2023-03-18T09:35:31.169Z,13.00
2023-03-18T09:37:59.555Z,13.10
2023-03-18T09:40:30.468Z,13.30
2023-03-18T09:43:10.725Z,13.60
2023-03-18T09:45:49.345Z,13.80
2023-03-18T09:48:41.578Z,13.90
2023-03-18T09:51:22.964Z,14.10
2023-03-18T09:53:58.153Z,14.30
2023-03-18T09:56:29.238Z,14.50
2023-03-18T09:59:03.308Z,14.50
2023-03-18T10:01:36.666Z,14.50
2023-03-18T10:04:11.622Z,14.40
2023-03-18T10:06:44.073Z,14.50
2023-03-18T10:09:20.807Z,14.40
2023-03-18T10:11:51.119Z,14.50
2023-03-18T10:14:37.227Z,14.50
2023-03-18T10:17:17.789Z,14.70
2023-03-18T10:19:50.018Z,14.90
2023-03-18T10:22:38.444Z,15.00
2023-03-18T10:25:17.075Z,15.10
2023-03-18T10:27:55.436Z,15.20
2023-03-18T10:30:35.220Z,15.20
2023-03-18T10:33:14.587Z,15.10
2023-03-18T10:35:49.463Z,15.10
2023-03-18T10:38:23.517Z,15.30
2023-03-18T10:40:51.434Z,15.30
2023-03-18T10:43:22.087Z,15.40
2023-03-18T10:45:56.148Z,15.40
2023-03-18T10:48:30.595Z,15.30
2023-03-18T10:51:09.223Z,15.20
2023-03-18T10:53:41.384Z,15.20
2023-03-18T10:56:11.404Z,15.40
2023-03-18T10:58:40.581Z,15.60
2023-03-18T11:01:11.250Z,15.80
2023-03-18T11:03:45.571Z,15.80
2023-03-18T11:06:20.264Z,16.00
2023-03-18T11:08:49.998Z,16.30
2023-03-18T11:11:23.519Z,16.60
2023-03-18T11:13:53.239Z,16.60
2023-03-18T11:16:30.681Z,16.50
2023-03-18T11:19:00.201Z,16.30
2023-03-18T11:21:29.806Z,16.20
2023-03-18T11:24:20.788Z,16.20
2023-03-18T11:26:54.310Z,16.30
2023-03-18T11:29:25.144Z,16.40
2023-03-18T11:31:58.029Z,16.60
2023-03-18T11:34:28.745Z,16.80
2023-03-18T11:37:04.367Z,17.20
2023-03-18T11:39:37.449Z,17.40
2023-03-18T11:42:19.076Z,17.60
2023-03-18T11:44:47.593Z,17.50
2023-03-18T11:47:20.542Z,17.60
2023-03-18T11:49:49.758Z,17.60
2023-03-18T11:52:33.592Z,17.60
2023-03-18T11:55:12.063Z,17.20
2023-03-18T11:58:00.034Z,17.10
2023-03-18T12:00:33.362Z,17.10
2023-03-18T12:03:35.438Z,17.20
2023-03-18T12:06:14.527Z,17.00
2023-03-18T12:08:50.781Z,16.80
2023-03-18T12:11:26.332Z,16.80
2023-03-18T12:14:02.293Z,16.80
2023-03-18T12:16:43.535Z,16.90
2023-03-18T12:19:45.086Z,17.00
2023-03-18T12:22:28.792Z,17.10
2023-03-18T12:25:14.109Z,17.20
2023-03-18T12:27:50.710Z,17.20
2023-03-18T12:30:36.658Z,17.30
2023-03-18T12:33:16.010Z,17.40
2023-03-18T12:35:54.770Z,17.40
2023-03-18T12:38:54.274Z,17.40
2023-03-18T12:41:32.311Z,17.40
2023-03-18T12:44:10.432Z,17.50
2023-03-18T12:46:43.757Z,17.40
2023-03-18T12:49:16.316Z,17.50
2023-03-18T12:51:49.579Z,17.50
2023-03-18T12:54:25.788Z,17.50
2023-03-18T12:56:58.078Z,17.50
2023-03-18T12:59:32.527Z,17.50
2023-03-18T13:02:23.820Z,17.60
2023-03-18T13:04:56.656Z,17.70
2023-03-18T13:07:36.365Z,17.70
2023-03-18T13:10:16.309Z,17.70
2023-03-18T13:12:46.342Z,17.70
2023-03-18T13:15:22.545Z,17.70
2023-03-18T13:17:55.181Z,17.80
2023-03-18T13:20:25.755Z,17.90
2023-03-18T13:23:17.278Z,17.90
2023-03-18T13:25:58.991Z,18.00
2023-03-18T13:28:39.701Z,18.00
2023-03-18T13:31:15.480Z,17.90
2023-03-18T13:34:26.291Z,17.90
2023-03-18T13:37:25.251Z,17.80
2023-03-18T13:40:22.420Z,17.90
2023-03-18T13:42:56.930Z,18.00
2023-03-18T13:45:28.607Z,18.00
2023-03-18T13:47:59.025Z,17.90
2023-03-18T13:50:32.555Z,17.80
2023-03-18T13:53:02.670Z,17.80
2023-03-18T13:55:34.953Z,17.70
2023-03-18T13:58:25.888Z,17.60
2023-03-18T14:01:28.651Z,17.60
2023-03-18T14:04:19.024Z,17.60
2023-03-18T14:06:56.438Z,17.50
2023-03-18T14:09:33.912Z,17.70
2023-03-18T14:12:18.927Z,17.90
2023-03-18T14:15:26.394Z,18.10
2023-03-18T14:17:58.140Z,18.70
2023-03-18T14:20:29.690Z,18.90
2023-03-18T14:23:18.946Z,19.00
2023-03-18T14:25:54.415Z,19.20
2023-03-18T14:28:26.786Z,20.20
2023-03-18T14:31:00.578Z,22.00
2023-03-18T14:33:58.222Z,24.10
2023-03-18T14:36:48.278Z,24.30
2023-03-18T14:39:19.715Z,23.10
2023-03-18T14:41:54.034Z,22.30
2023-03-18T14:44:28.000Z,22.00
2023-03-18T14:47:00.180Z,21.20
2023-03-18T14:49:36.265Z,20.90
2023-03-18T14:52:07.633Z,20.70
2023-03-18T14:54:43.731Z,20.60
2023-03-18T14:57:13.248Z,20.60
2023-03-18T14:59:41.426Z,21.10
2023-03-18T15:02:23.795Z,21.50
2023-03-18T15:04:54.369Z,22.00
2023-03-18T15:07:26.557Z,21.90
2023-03-18T15:09:55.031Z,22.70
2023-03-18T15:12:28.572Z,23.40
2023-03-18T15:14:56.744Z,23.00
2023-03-18T15:17:28.161Z,21.70
2023-03-18T15:20:00.066Z,21.10
2023-03-18T15:22:31.865Z,21.70
2023-03-18T15:25:02.631Z,22.00
2023-03-18T15:27:34.480Z,21.50
2023-03-18T15:30:05.247Z,21.20
2023-03-18T15:32:43.488Z,21.10
2023-03-18T15:35:18.446Z,20.60
2023-03-18T15:38:02.984Z,20.00
2023-03-18T15:40:35.231Z,19.50
2023-03-18T15:43:19.306Z,19.20
2023-03-18T15:45:53.826Z,19.10
2023-03-18T15:48:27.455Z,19.00
2023-03-18T15:50:57.266Z,18.80
2023-03-18T15:53:27.158Z,18.70
2023-03-18T15:55:56.611Z,18.40
2023-03-18T15:58:28.028Z,18.30
2023-03-18T16:00:57.670Z,18.20
2023-03-18T16:03:29.208Z,18.00
2023-03-18T16:05:58.086Z,18.00
2023-03-18T16:08:26.460Z,17.90
2023-03-18T16:10:57.403Z,17.70
2023-03-18T16:13:30.076Z,17.70
2023-03-18T16:15:58.354Z,17.60
2023-03-18T16:18:27.088Z,17.40
2023-03-18T16:20:55.143Z,17.30
2023-03-18T16:23:23.084Z,17.20
2023-03-18T16:25:52.837Z,17.10
2023-03-18T16:28:23.318Z,17.10
2023-03-18T16:30:55.846Z,17.00
2023-03-18T16:33:24.660Z,17.00
2023-03-18T16:35:58.124Z,17.00
2023-03-18T16:38:26.569Z,16.90
2023-03-18T16:40:55.352Z,16.90
2023-03-18T16:43:26.880Z,16.80
2023-03-18T16:46:00.512Z,16.70
2023-03-18T16:48:28.887Z,16.70
2023-03-18T16:50:59.227Z,16.60
2023-03-18T16:53:31.415Z,16.50
2023-03-18T16:56:02.877Z,16.50
2023-03-18T16:58:34.995Z,16.50
2023-03-18T17:01:06.148Z,16.60
2023-03-18T17:03:34.803Z,16.50
2023-03-18T17:06:02.664Z,16.40
2023-03-18T17:08:30.580Z,16.20
2023-03-18T17:11:01.607Z,16.00
2023-03-18T17:13:31.553Z,16.00
2023-03-18T17:15:59.399Z,15.80
2023-03-18T17:18:28.756Z,15.60
2023-03-18T17:20:57.011Z,15.50
2023-03-18T17:23:26.732Z,15.30
2023-03-18T17:25:56.771Z,15.10
2023-03-18T17:28:30.474Z,15.00
2023-03-18T17:30:58.644Z,14.80
2023-03-18T17:33:31.128Z,14.80
2023-03-18T17:36:00.480Z,14.70
2023-03-18T17:38:28.858Z,14.70
2023-03-18T17:40:56.685Z,14.50
2023-03-18T17:43:28.577Z,14.50
2023-03-18T17:45:57.482Z,14.40
2023-03-18T17:48:27.076Z,14.30
2023-03-18T17:50:58.161Z,14.20
2023-03-18T17:53:30.807Z,14.10
2023-03-18T17:55:59.008Z,14.10
2023-03-18T17:58:29.269Z,14.00
2023-03-18T18:01:03.623Z,14.00
2023-03-18T18:03:32.814Z,13.90
2023-03-18T18:06:03.399Z,13.90
2023-03-18T18:08:31.805Z,13.80
2023-03-18T18:11:05.277Z,13.70
2023-03-18T18:13:33.627Z,13.70
2023-03-18T18:16:01.875Z,13.60
2023-03-18T18:18:29.941Z,13.60
2023-03-18T18:20:59.669Z,13.60
2023-03-18T18:23:34.569Z,13.60
2023-03-18T18:26:04.640Z,13.60
2023-03-18T18:28:34.666Z,13.50
2023-03-18T18:31:03.360Z,13.50
2023-03-18T18:33:32.256Z,13.40
2023-03-18T18:36:00.446Z,13.50
2023-03-18T18:38:29.322Z,13.50
2023-03-18T18:41:00.102Z,13.40
2023-03-18T18:43:28.576Z,13.40
2023-03-18T18:45:57.615Z,13.40
2023-03-18T18:48:30.089Z,13.30
2023-03-18T18:50:58.527Z,13.30
2023-03-18T18:53:28.056Z,13.20
2023-03-18T18:56:00.015Z,13.20
2023-03-18T18:58:29.683Z,13.10
2023-03-18T19:00:58.563Z,13.10
2023-03-18T19:03:30.263Z,13.10
2023-03-18T19:05:59.650Z,13.10
2023-03-18T19:08:29.090Z,13.00
2023-03-18T19:10:59.607Z,13.00
2023-03-18T19:13:30.307Z,12.90
2023-03-18T19:16:00.113Z,12.90
2023-03-18T19:18:33.561Z,12.90
2023-03-18T19:21:01.478Z,12.80
2023-03-18T19:23:33.168Z,12.80
2023-03-18T19:26:04.040Z,12.80
2023-03-18T19:28:58.395Z,12.70
2023-03-18T19:31:30.536Z,12.70
2023-03-18T19:34:00.411Z,12.60
2023-03-18T19:36:31.435Z,12.50
2023-03-18T19:39:01.081Z,12.50
2023-03-18T19:41:30.999Z,12.40
2023-03-18T19:44:03.862Z,12.40
2023-03-18T19:46:38.406Z,12.40
2023-03-18T19:49:13.497Z,12.40
2023-03-18T19:51:41.462Z,12.30
2023-03-18T19:54:21.835Z,12.30
2023-03-18T19:56:52.421Z,12.20
2023-03-18T19:59:22.914Z,12.20
2023-03-18T20:01:51.719Z,12.10
2023-03-18T20:04:20.552Z,12.00
2023-03-18T20:06:48.465Z,12.00
2023-03-18T20:09:17.645Z,11.80
2023-03-18T20:11:46.577Z,11.80
2023-03-18T20:14:26.086Z,11.80
2023-03-18T20:16:55.658Z,11.80
2023-03-18T20:19:23.506Z,11.70
2023-03-18T20:21:51.771Z,11.80
2023-03-18T20:24:28.755Z,11.70
2023-03-18T20:26:56.632Z,11.70
2023-03-18T20:29:26.172Z,11.70
2023-03-18T20:31:54.323Z,11.70
2023-03-18T20:34:22.975Z,11.60
2023-03-18T20:36:51.149Z,11.50
2023-03-18T20:39:21.613Z,11.40
2023-03-18T20:41:50.378Z,11.40
2023-03-18T20:44:18.316Z,11.40
2023-03-18T20:46:47.929Z,11.30
2023-03-18T20:49:15.808Z,11.30
2023-03-18T20:51:44.207Z,11.30
2023-03-18T20:54:18.784Z,11.20
2023-03-18T20:56:47.222Z,11.00
2023-03-18T20:59:15.089Z,11.00
2023-03-18T21:01:43.641Z,11.00
2023-03-18T21:04:14.075Z,11.00
2023-03-18T21:06:42.483Z,11.10
2023-03-18T21:09:13.148Z,11.10
2023-03-18T21:11:41.078Z,11.10
2023-03-18T21:14:15.253Z,11.10
2023-03-18T21:16:43.221Z,11.10
2023-03-18T21:19:12.551Z,11.20
2023-03-18T21:21:42.665Z,11.20
2023-03-18T21:24:25.535Z,11.20
2023-03-18T21:27:04.155Z,11.10
2023-03-18T21:29:33.486Z,11.00
2023-03-18T21:32:02.564Z,11.00
2023-03-18T21:34:30.426Z,10.90
2023-03-18T21:36:59.722Z,10.80
2023-03-18T21:39:28.015Z,10.70
2023-03-18T21:41:57.155Z,10.60
2023-03-18T21:44:25.009Z,10.60
2023-03-18T21:46:52.878Z,10.60
2023-03-18T21:49:20.957Z,10.70
2023-03-18T21:51:48.856Z,10.80
2023-03-18T21:54:19.857Z,10.90
2023-03-18T21:56:47.799Z,11.00
2023-03-18T21:59:15.844Z,10.90
2023-03-18T22:01:43.809Z,11.00
2023-03-18T22:04:12.530Z,11.00
2023-03-18T22:06:40.586Z,10.90
2023-03-18T22:09:08.631Z,10.90
2023-03-18T22:11:37.995Z,10.90
2023-03-18T22:14:06.211Z,10.70
2023-03-18T22:16:34.088Z,10.70
2023-03-18T22:19:01.938Z,10.60
2023-03-18T22:21:29.984Z,10.50
2023-03-18T22:23:59.901Z,10.40
2023-03-18T22:26:27.757Z,10.40
2023-03-18T22:28:56.948Z,10.50
2023-03-18T22:31:26.928Z,10.60
2023-03-18T22:33:55.495Z,10.60
2023-03-18T22:36:23.769Z,10.70
2023-03-18T22:38:51.857Z,10.80
2023-03-18T22:41:22.357Z,10.80
2023-03-18T22:43:51.146Z,10.90
2023-03-18T22:46:20.409Z,11.00
2023-03-18T22:48:48.556Z,11.00
2023-03-18T22:51:24.257Z,11.00
2023-03-18T22:53:53.602Z,10.90
2023-03-18T22:56:22.675Z,11.00
2023-03-18T22:58:51.345Z,11.00
